sensor_id;sensor_type;location;lat;lon;timestamp;temperature;humidity
43627;DHT22;29217;52.586;13.442;2024-01-16T00:00:34;-0.10;99.90
43627;DHT22;29217;52.586;13.442;2024-01-16T00:03:00;-0.10;99.90
43627;DHT22;29217;52.586;13.442;2024-01-16T00:05:26;-0.10;99.90
43627;DHT22;29217;52.586;13.442;2024-01-16T00:07:51;-0.10;99.90
43627;DHT22;29217;52.586;13.442;2024-01-16T00:10:17;-0.10;99.90
43627;DHT22;29217;52.586;13.442;2024-01-16T00:12:43;-0.20;99.90
43627;DHT22;29217;52.586;13.442;2024-01-16T00:15:08;-0.20;99.90
43627;DHT22;29217;52.586;13.442;2024-01-16T00:17:35;-0.20;99.90
43627;DHT22;29217;52.586;13.442;2024-01-16T00:20:00;-0.40;99.90
43627;DHT22;29217;52.586;13.442;2024-01-16T00:22:27;-0.40;99.90
43627;DHT22;29217;52.586;13.442;2024-01-16T00:24:53;-0.30;99.90
43627;DHT22;29217;52.586;13.442;2024-01-16T00:27:18;-0.50;99.90
43627;DHT22;29217;52.586;13.442;2024-01-16T00:29:44;-0.30;99.90
43627;DHT22;29217;52.586;13.442;2024-01-16T00:32:09;-0.40;99.90
43627;DHT22;29217;52.586;13.442;2024-01-16T00:34:35;-0.40;99.90
43627;DHT22;29217;52.586;13.442;2024-01-16T00:37:00;-0.50;99.90
43627;DHT22;29217;52.586;13.442;2024-01-16T00:39:26;-0.40;99.90
43627;DHT22;29217;52.586;13.442;2024-01-16T00:41:52;-0.40;99.90
43627;DHT22;29217;52.586;13.442;2024-01-16T00:44:17;-0.30;99.90
43627;DHT22;29217;52.586;13.442;2024-01-16T00:46:43;-0.50;99.90
43627;DHT22;29217;52.586;13.442;2024-01-16T00:49:08;-0.40;99.90
43627;DHT22;29217;52.586;13.442;2024-01-16T00:51:35;-0.70;99.90
43627;DHT22;29217;52.586;13.442;2024-01-16T00:54:00;-0.50;99.90
43627;DHT22;29217;52.586;13.442;2024-01-16T00:56:26;-0.60;99.90
43627;DHT22;29217;52.586;13.442;2024-01-16T00:58:53;-0.60;99.90
43627;DHT22;29217;52.586;13.442;2024-01-16T01:01:19;-0.70;99.90
43627;DHT22;29217;52.586;13.442;2024-01-16T01:03:45;-0.90;99.90
43627;DHT22;29217;52.586;13.442;2024-01-16T01:06:11;-0.80;99.90
43627;DHT22;29217;52.586;13.442;2024-01-16T01:08:37;-0.90;99.90
43627;DHT22;29217;52.586;13.442;2024-01-16T01:11:02;-0.90;99.90
43627;DHT22;29217;52.586;13.442;2024-01-16T01:13:28;-0.90;99.90
43627;DHT22;29217;52.586;13.442;2024-01-16T01:15:54;-1.20;99.90
43627;DHT22;29217;52.586;13.442;2024-01-16T01:18:19;-0.90;99.90
43627;DHT22;29217;52.586;13.442;2024-01-16T01:20:45;-1.00;99.90
43627;DHT22;29217;52.586;13.442;2024-01-16T01:23:11;-1.10;99.90
43627;DHT22;29217;52.586;13.442;2024-01-16T01:25:36;-1.00;99.90
43627;DHT22;29217;52.586;13.442;2024-01-16T01:28:02;-1.00;99.90
43627;DHT22;29217;52.586;13.442;2024-01-16T01:30:28;-1.10;99.90
43627;DHT22;29217;52.586;13.442;2024-01-16T01:32:53;-0.90;99.90
43627;DHT22;29217;52.586;13.442;2024-01-16T01:35:19;-1.10;99.90
43627;DHT22;29217;52.586;13.442;2024-01-16T01:37:47;-0.90;99.90
43627;DHT22;29217;52.586;13.442;2024-01-16T01:40:13;-0.80;99.90
43627;DHT22;29217;52.586;13.442;2024-01-16T01:42:41;-0.80;99.90
43627;DHT22;29217;52.586;13.442;2024-01-16T01:45:08;-0.90;99.90
43627;DHT22;29217;52.586;13.442;2024-01-16T01:47:34;-0.90;99.90
43627;DHT22;29217;52.586;13.442;2024-01-16T01:50:01;-0.80;99.90
43627;DHT22;29217;52.586;13.442;2024-01-16T01:52:30;-1.10;99.90
43627;DHT22;29217;52.586;13.442;2024-01-16T01:54:56;-0.90;99.90
43627;DHT22;29217;52.586;13.442;2024-01-16T01:57:22;-0.90;99.90
43627;DHT22;29217;52.586;13.442;2024-01-16T01:59:47;-0.90;99.90
43627;DHT22;29217;52.586;13.442;2024-01-16T02:02:13;-0.90;99.90
43627;DHT22;29217;52.586;13.442;2024-01-16T02:04:40;-0.80;99.90
43627;DHT22;29217;52.586;13.442;2024-01-16T02:07:06;-1.00;99.90
43627;DHT22;29217;52.586;13.442;2024-01-16T02:09:32;-1.00;99.90
43627;DHT22;29217;52.586;13.442;2024-01-16T02:11:58;-0.80;99.90
43627;DHT22;29217;52.586;13.442;2024-01-16T02:14:23;-0.90;99.90
43627;DHT22;29217;52.586;13.442;2024-01-16T02:16:49;-0.80;99.90
43627;DHT22;29217;52.586;13.442;2024-01-16T02:19:15;-1.10;99.90
43627;DHT22;29217;52.586;13.442;2024-01-16T02:21:47;-1.20;99.90
43627;DHT22;29217;52.586;13.442;2024-01-16T02:24:17;-1.10;99.90
43627;DHT22;29217;52.586;13.442;2024-01-16T02:26:44;-1.00;99.90
43627;DHT22;29217;52.586;13.442;2024-01-16T02:29:10;-1.00;99.90
43627;DHT22;29217;52.586;13.442;2024-01-16T02:31:35;-1.30;99.90
43627;DHT22;29217;52.586;13.442;2024-01-16T02:51:08;-1.60;99.90
43627;DHT22;29217;52.586;13.442;2024-01-16T02:53:34;-1.80;99.90
43627;DHT22;29217;52.586;13.442;2024-01-16T02:55:59;-2.20;99.90
43627;DHT22;29217;52.586;13.442;2024-01-16T02:58:29;-2.40;99.90
43627;DHT22;29217;52.586;13.442;2024-01-16T03:00:55;-2.70;99.90
43627;DHT22;29217;52.586;13.442;2024-01-16T03:03:21;-2.70;99.90
43627;DHT22;29217;52.586;13.442;2024-01-16T03:05:47;-2.60;99.90
43627;DHT22;29217;52.586;13.442;2024-01-16T03:08:13;-2.60;99.90
43627;DHT22;29217;52.586;13.442;2024-01-16T03:10:38;-2.50;99.90
43627;DHT22;29217;52.586;13.442;2024-01-16T03:13:04;-2.50;99.90
43627;DHT22;29217;52.586;13.442;2024-01-16T03:15:29;-2.60;99.90
43627;DHT22;29217;52.586;13.442;2024-01-16T03:17:58;-2.40;99.90
43627;DHT22;29217;52.586;13.442;2024-01-16T03:20:24;-2.70;99.90
43627;DHT22;29217;52.586;13.442;2024-01-16T03:22:50;-2.90;99.90
43627;DHT22;29217;52.586;13.442;2024-01-16T03:25:19;-3.00;99.90
43627;DHT22;29217;52.586;13.442;2024-01-16T03:27:44;-3.00;99.90
43627;DHT22;29217;52.586;13.442;2024-01-16T03:30:10;-2.80;99.90
43627;DHT22;29217;52.586;13.442;2024-01-16T03:32:37;-2.50;99.90
43627;DHT22;29217;52.586;13.442;2024-01-16T03:35:03;-2.70;99.90
43627;DHT22;29217;52.586;13.442;2024-01-16T03:37:29;-3.00;99.90
43627;DHT22;29217;52.586;13.442;2024-01-16T03:39:54;-3.00;99.90
43627;DHT22;29217;52.586;13.442;2024-01-16T03:42:20;-2.90;99.90
43627;DHT22;29217;52.586;13.442;2024-01-16T03:44:46;-2.80;99.90
43627;DHT22;29217;52.586;13.442;2024-01-16T03:47:12;-2.70;99.90
43627;DHT22;29217;52.586;13.442;2024-01-16T03:49:38;-2.60;99.90
43627;DHT22;29217;52.586;13.442;2024-01-16T03:52:04;-2.40;99.90
43627;DHT22;29217;52.586;13.442;2024-01-16T03:54:29;-2.30;99.90
43627;DHT22;29217;52.586;13.442;2024-01-16T03:56:55;-2.20;99.90
43627;DHT22;29217;52.586;13.442;2024-01-16T03:59:21;-2.10;99.90
43627;DHT22;29217;52.586;13.442;2024-01-16T04:01:47;-2.30;99.90
43627;DHT22;29217;52.586;13.442;2024-01-16T04:04:14;-2.00;99.90
43627;DHT22;29217;52.586;13.442;2024-01-16T04:06:40;-2.20;99.90
43627;DHT22;29217;52.586;13.442;2024-01-16T04:09:06;-2.00;99.90
43627;DHT22;29217;52.586;13.442;2024-01-16T04:11:31;-1.90;99.90
43627;DHT22;29217;52.586;13.442;2024-01-16T04:13:57;-1.90;99.90
43627;DHT22;29217;52.586;13.442;2024-01-16T04:16:22;-1.70;99.90
43627;DHT22;29217;52.586;13.442;2024-01-16T04:18:48;-1.80;99.90
43627;DHT22;29217;52.586;13.442;2024-01-16T04:21:13;-1.80;99.90
43627;DHT22;29217;52.586;13.442;2024-01-16T04:23:40;-1.60;99.90
43627;DHT22;29217;52.586;13.442;2024-01-16T04:26:06;-1.70;99.90
43627;DHT22;29217;52.586;13.442;2024-01-16T04:28:33;-1.80;99.90
43627;DHT22;29217;52.586;13.442;2024-01-16T04:30:59;-1.90;99.90
43627;DHT22;29217;52.586;13.442;2024-01-16T04:33:25;-1.80;99.90
43627;DHT22;29217;52.586;13.442;2024-01-16T04:35:50;-1.90;99.90
43627;DHT22;29217;52.586;13.442;2024-01-16T04:38:16;-1.80;99.90
43627;DHT22;29217;52.586;13.442;2024-01-16T04:40:42;-1.90;99.90
43627;DHT22;29217;52.586;13.442;2024-01-16T04:43:07;-1.70;99.90
43627;DHT22;29217;52.586;13.442;2024-01-16T04:45:33;-1.80;99.90
43627;DHT22;29217;52.586;13.442;2024-01-16T04:47:58;-1.60;99.90
43627;DHT22;29217;52.586;13.442;2024-01-16T04:50:24;-1.80;99.90
43627;DHT22;29217;52.586;13.442;2024-01-16T04:52:57;-1.70;99.90
43627;DHT22;29217;52.586;13.442;2024-01-16T04:55:22;-1.70;99.90
43627;DHT22;29217;52.586;13.442;2024-01-16T04:57:48;-1.60;99.90
43627;DHT22;29217;52.586;13.442;2024-01-16T05:00:14;-1.70;99.90
43627;DHT22;29217;52.586;13.442;2024-01-16T05:02:39;-1.70;99.90
43627;DHT22;29217;52.586;13.442;2024-01-16T05:05:06;-1.60;99.90
43627;DHT22;29217;52.586;13.442;2024-01-16T05:07:31;-1.70;99.90
43627;DHT22;29217;52.586;13.442;2024-01-16T05:09:57;-1.60;99.90
43627;DHT22;29217;52.586;13.442;2024-01-16T05:12:23;-1.60;99.90
43627;DHT22;29217;52.586;13.442;2024-01-16T05:14:49;-1.80;99.90
43627;DHT22;29217;52.586;13.442;2024-01-16T05:17:14;-1.80;99.90
43627;DHT22;29217;52.586;13.442;2024-01-16T05:19:40;-1.80;99.90
43627;DHT22;29217;52.586;13.442;2024-01-16T05:22:05;-1.70;99.90
43627;DHT22;29217;52.586;13.442;2024-01-16T05:24:31;-1.80;99.90
43627;DHT22;29217;52.586;13.442;2024-01-16T05:26:57;-1.90;99.90
43627;DHT22;29217;52.586;13.442;2024-01-16T05:29:23;-1.90;99.90
43627;DHT22;29217;52.586;13.442;2024-01-16T05:31:49;-1.60;99.90
43627;DHT22;29217;52.586;13.442;2024-01-16T05:34:14;-1.70;99.90
43627;DHT22;29217;52.586;13.442;2024-01-16T05:36:41;-1.70;99.90
43627;DHT22;29217;52.586;13.442;2024-01-16T05:39:07;-1.70;99.90
43627;DHT22;29217;52.586;13.442;2024-01-16T05:41:34;-1.70;99.90
43627;DHT22;29217;52.586;13.442;2024-01-16T05:44:00;-1.60;99.90
43627;DHT22;29217;52.586;13.442;2024-01-16T05:46:29;-1.80;99.90
43627;DHT22;29217;52.586;13.442;2024-01-16T05:48:55;-1.90;99.90
43627;DHT22;29217;52.586;13.442;2024-01-16T05:51:21;-1.90;99.90
43627;DHT22;29217;52.586;13.442;2024-01-16T05:53:46;-1.90;99.90
43627;DHT22;29217;52.586;13.442;2024-01-16T05:56:12;-1.90;99.90
43627;DHT22;29217;52.586;13.442;2024-01-16T05:58:37;-2.20;99.90
43627;DHT22;29217;52.586;13.442;2024-01-16T06:01:05;-2.10;99.90
43627;DHT22;29217;52.586;13.442;2024-01-16T06:03:31;-2.30;99.90
43627;DHT22;29217;52.586;13.442;2024-01-16T06:05:56;-2.40;99.90
43627;DHT22;29217;52.586;13.442;2024-01-16T06:08:22;-2.40;99.90
43627;DHT22;29217;52.586;13.442;2024-01-16T06:10:47;-2.40;99.90
43627;DHT22;29217;52.586;13.442;2024-01-16T06:13:13;-2.70;99.90
43627;DHT22;29217;52.586;13.442;2024-01-16T06:15:38;-2.60;99.90
43627;DHT22;29217;52.586;13.442;2024-01-16T06:18:04;-2.60;99.90
43627;DHT22;29217;52.586;13.442;2024-01-16T06:20:30;-2.50;99.90
43627;DHT22;29217;52.586;13.442;2024-01-16T06:22:56;-2.70;99.90
43627;DHT22;29217;52.586;13.442;2024-01-16T06:25:22;-2.50;99.90
43627;DHT22;29217;52.586;13.442;2024-01-16T06:27:47;-2.90;99.90
43627;DHT22;29217;52.586;13.442;2024-01-16T06:30:13;-2.80;99.90
43627;DHT22;29217;52.586;13.442;2024-01-16T06:32:39;-3.00;99.90
43627;DHT22;29217;52.586;13.442;2024-01-16T06:35:04;-2.60;99.90
43627;DHT22;29217;52.586;13.442;2024-01-16T06:37:31;-2.40;99.90
43627;DHT22;29217;52.586;13.442;2024-01-16T06:39:56;-2.40;99.90
43627;DHT22;29217;52.586;13.442;2024-01-16T06:42:22;-2.20;99.90
43627;DHT22;29217;52.586;13.442;2024-01-16T06:44:47;-2.20;99.90
43627;DHT22;29217;52.586;13.442;2024-01-16T06:47:13;-2.10;99.90
43627;DHT22;29217;52.586;13.442;2024-01-16T06:49:39;-2.10;99.90
43627;DHT22;29217;52.586;13.442;2024-01-16T06:52:05;-2.00;99.90
43627;DHT22;29217;52.586;13.442;2024-01-16T06:54:30;-2.10;99.90
43627;DHT22;29217;52.586;13.442;2024-01-16T06:56:56;-2.20;99.90
43627;DHT22;29217;52.586;13.442;2024-01-16T06:59:22;-2.00;99.90
43627;DHT22;29217;52.586;13.442;2024-01-16T07:01:47;-2.20;99.90
43627;DHT22;29217;52.586;13.442;2024-01-16T07:04:14;-2.00;99.90
43627;DHT22;29217;52.586;13.442;2024-01-16T07:06:40;-1.80;99.90
43627;DHT22;29217;52.586;13.442;2024-01-16T07:09:05;-2.00;99.90
43627;DHT22;29217;52.586;13.442;2024-01-16T07:11:31;-1.80;99.90
43627;DHT22;29217;52.586;13.442;2024-01-16T07:13:57;-1.80;99.90
43627;DHT22;29217;52.586;13.442;2024-01-16T07:16:22;-1.80;99.90
43627;DHT22;29217;52.586;13.442;2024-01-16T07:18:48;-1.80;99.90
43627;DHT22;29217;52.586;13.442;2024-01-16T07:21:18;-1.80;99.90
43627;DHT22;29217;52.586;13.442;2024-01-16T07:23:44;-1.80;99.90
43627;DHT22;29217;52.586;13.442;2024-01-16T07:26:10;-1.60;99.90
43627;DHT22;29217;52.586;13.442;2024-01-16T07:28:35;-1.50;99.90
43627;DHT22;29217;52.586;13.442;2024-01-16T07:31:01;-1.50;99.90
43627;DHT22;29217;52.586;13.442;2024-01-16T07:33:26;-1.60;99.90
43627;DHT22;29217;52.586;13.442;2024-01-16T07:35:52;-1.60;99.90
43627;DHT22;29217;52.586;13.442;2024-01-16T07:38:18;-1.70;99.90
43627;DHT22;29217;52.586;13.442;2024-01-16T07:40:44;-1.70;99.90
43627;DHT22;29217;52.586;13.442;2024-01-16T07:43:10;-1.80;99.90
43627;DHT22;29217;52.586;13.442;2024-01-16T07:45:35;-1.80;99.90
43627;DHT22;29217;52.586;13.442;2024-01-16T07:48:01;-1.50;99.90
43627;DHT22;29217;52.586;13.442;2024-01-16T07:50:26;-1.30;99.90
43627;DHT22;29217;52.586;13.442;2024-01-16T07:52:52;-1.40;99.90
43627;DHT22;29217;52.586;13.442;2024-01-16T07:55:17;-1.40;99.90
43627;DHT22;29217;52.586;13.442;2024-01-16T07:57:44;-1.40;99.90
43627;DHT22;29217;52.586;13.442;2024-01-16T08:00:10;-1.50;99.90
43627;DHT22;29217;52.586;13.442;2024-01-16T08:02:38;-1.60;99.90
43627;DHT22;29217;52.586;13.442;2024-01-16T08:05:05;-1.40;99.90
43627;DHT22;29217;52.586;13.442;2024-01-16T08:07:30;-1.30;99.90
43627;DHT22;29217;52.586;13.442;2024-01-16T08:09:57;-1.20;99.90
43627;DHT22;29217;52.586;13.442;2024-01-16T08:12:22;-1.30;99.90
43627;DHT22;29217;52.586;13.442;2024-01-16T08:14:48;-1.20;99.90
43627;DHT22;29217;52.586;13.442;2024-01-16T08:17:13;-1.20;99.90
43627;DHT22;29217;52.586;13.442;2024-01-16T08:19:39;-1.20;99.90
43627;DHT22;29217;52.586;13.442;2024-01-16T08:22:04;-1.20;99.90
43627;DHT22;29217;52.586;13.442;2024-01-16T08:24:31;-1.20;99.90
43627;DHT22;29217;52.586;13.442;2024-01-16T08:26:57;-1.30;99.90
43627;DHT22;29217;52.586;13.442;2024-01-16T08:29:24;-1.30;99.90
43627;DHT22;29217;52.586;13.442;2024-01-16T08:31:49;-1.20;99.90
43627;DHT22;29217;52.586;13.442;2024-01-16T08:34:16;-1.20;99.90
43627;DHT22;29217;52.586;13.442;2024-01-16T08:36:42;-1.20;99.90
43627;DHT22;29217;52.586;13.442;2024-01-16T08:39:07;-1.30;99.90
43627;DHT22;29217;52.586;13.442;2024-01-16T08:41:33;-1.30;99.90
43627;DHT22;29217;52.586;13.442;2024-01-16T08:43:59;-1.10;99.90
43627;DHT22;29217;52.586;13.442;2024-01-16T08:46:24;-1.10;99.90
43627;DHT22;29217;52.586;13.442;2024-01-16T08:48:50;-0.90;99.90
43627;DHT22;29217;52.586;13.442;2024-01-16T08:51:15;-0.90;99.90
43627;DHT22;29217;52.586;13.442;2024-01-16T08:53:41;-0.70;99.90
43627;DHT22;29217;52.586;13.442;2024-01-16T08:56:07;-0.90;99.90
43627;DHT22;29217;52.586;13.442;2024-01-16T08:58:34;-1.00;99.90
43627;DHT22;29217;52.586;13.442;2024-01-16T09:01:04;-1.00;99.90
43627;DHT22;29217;52.586;13.442;2024-01-16T09:03:33;-1.00;99.90
43627;DHT22;29217;52.586;13.442;2024-01-16T09:05:59;-0.90;99.90
43627;DHT22;29217;52.586;13.442;2024-01-16T09:08:26;-0.80;99.90
43627;DHT22;29217;52.586;13.442;2024-01-16T09:10:52;-0.80;99.90
43627;DHT22;29217;52.586;13.442;2024-01-16T09:13:18;-0.70;99.90
43627;DHT22;29217;52.586;13.442;2024-01-16T09:15:45;-0.70;99.90
43627;DHT22;29217;52.586;13.442;2024-01-16T09:18:12;-0.90;99.90
43627;DHT22;29217;52.586;13.442;2024-01-16T09:20:38;-0.90;99.90
43627;DHT22;29217;52.586;13.442;2024-01-16T09:23:03;-0.90;99.90
43627;DHT22;29217;52.586;13.442;2024-01-16T09:25:29;-0.70;99.90
43627;DHT22;29217;52.586;13.442;2024-01-16T09:27:55;-0.70;99.90
43627;DHT22;29217;52.586;13.442;2024-01-16T09:30:20;-0.70;99.90
43627;DHT22;29217;52.586;13.442;2024-01-16T09:32:48;-0.80;99.90
43627;DHT22;29217;52.586;13.442;2024-01-16T09:35:14;-0.40;99.90
43627;DHT22;29217;52.586;13.442;2024-01-16T09:37:39;-0.80;99.90
43627;DHT22;29217;52.586;13.442;2024-01-16T09:40:06;-0.40;99.90
43627;DHT22;29217;52.586;13.442;2024-01-16T09:42:31;-0.50;99.90
43627;DHT22;29217;52.586;13.442;2024-01-16T09:44:57;-0.40;99.90
43627;DHT22;29217;52.586;13.442;2024-01-16T09:47:25;-0.40;99.90
43627;DHT22;29217;52.586;13.442;2024-01-16T09:49:52;-0.30;99.90
43627;DHT22;29217;52.586;13.442;2024-01-16T09:52:19;-0.40;99.90
43627;DHT22;29217;52.586;13.442;2024-01-16T09:54:45;-0.40;99.90
43627;DHT22;29217;52.586;13.442;2024-01-16T09:57:12;-0.40;99.90
43627;DHT22;29217;52.586;13.442;2024-01-16T09:59:39;-0.20;99.90
43627;DHT22;29217;52.586;13.442;2024-01-16T10:02:09;0.00;99.90
43627;DHT22;29217;52.586;13.442;2024-01-16T10:04:36;-0.20;99.90
43627;DHT22;29217;52.586;13.442;2024-01-16T10:07:02;-0.10;99.90
43627;DHT22;29217;52.586;13.442;2024-01-16T10:09:29;0.00;99.90
43627;DHT22;29217;52.586;13.442;2024-01-16T10:11:55;0.10;99.90
43627;DHT22;29217;52.586;13.442;2024-01-16T10:14:21;-0.10;99.90
43627;DHT22;29217;52.586;13.442;2024-01-16T10:17:02;0.00;99.90
43627;DHT22;29217;52.586;13.442;2024-01-16T10:19:31;-0.20;99.90
43627;DHT22;29217;52.586;13.442;2024-01-16T10:22:06;0.10;99.90
43627;DHT22;29217;52.586;13.442;2024-01-16T10:24:32;-0.10;99.90
43627;DHT22;29217;52.586;13.442;2024-01-16T10:27:01;0.00;99.90
43627;DHT22;29217;52.586;13.442;2024-01-16T10:29:31;0.00;99.90
43627;DHT22;29217;52.586;13.442;2024-01-16T10:31:58;0.20;99.90
43627;DHT22;29217;52.586;13.442;2024-01-16T10:34:24;0.30;99.90
43627;DHT22;29217;52.586;13.442;2024-01-16T10:36:51;0.30;99.90
43627;DHT22;29217;52.586;13.442;2024-01-16T10:39:18;0.20;99.90
43627;DHT22;29217;52.586;13.442;2024-01-16T10:42:04;0.20;99.90
43627;DHT22;29217;52.586;13.442;2024-01-16T10:44:29;0.20;99.90
43627;DHT22;29217;52.586;13.442;2024-01-16T10:47:12;0.40;99.90
43627;DHT22;29217;52.586;13.442;2024-01-16T10:49:38;0.50;99.90
43627;DHT22;29217;52.586;13.442;2024-01-16T10:52:06;0.40;99.90
43627;DHT22;29217;52.586;13.442;2024-01-16T10:54:35;0.20;99.90
43627;DHT22;29217;52.586;13.442;2024-01-16T10:57:03;0.60;99.90
43627;DHT22;29217;52.586;13.442;2024-01-16T11:02:07;0.60;99.90
43627;DHT22;29217;52.586;13.442;2024-01-16T11:04:35;0.50;99.90
43627;DHT22;29217;52.586;13.442;2024-01-16T11:07:01;0.50;99.90
43627;DHT22;29217;52.586;13.442;2024-01-16T11:09:31;0.30;99.90
43627;DHT22;29217;52.586;13.442;2024-01-16T11:11:57;0.60;99.90
43627;DHT22;29217;52.586;13.442;2024-01-16T11:14:25;0.40;99.90
43627;DHT22;29217;52.586;13.442;2024-01-16T11:16:51;0.50;99.90
43627;DHT22;29217;52.586;13.442;2024-01-16T11:19:19;0.70;99.90
43627;DHT22;29217;52.586;13.442;2024-01-16T11:21:45;0.60;99.90
43627;DHT22;29217;52.586;13.442;2024-01-16T11:24:12;0.60;99.90
43627;DHT22;29217;52.586;13.442;2024-01-16T11:26:41;0.60;99.90
43627;DHT22;29217;52.586;13.442;2024-01-16T11:31:55;0.60;99.90
43627;DHT22;29217;52.586;13.442;2024-01-16T11:37:11;0.50;99.90
43627;DHT22;29217;52.586;13.442;2024-01-16T11:39:38;0.40;99.90
43627;DHT22;29217;52.586;13.442;2024-01-16T11:42:03;0.50;99.90
43627;DHT22;29217;52.586;13.442;2024-01-16T11:44:49;0.60;99.90
43627;DHT22;29217;52.586;13.442;2024-01-16T11:47:23;0.60;99.90
43627;DHT22;29217;52.586;13.442;2024-01-16T11:50:08;0.70;99.90
43627;DHT22;29217;52.586;13.442;2024-01-16T12:00:53;0.40;99.90
43627;DHT22;29217;52.586;13.442;2024-01-16T12:03:21;0.60;99.90
43627;DHT22;29217;52.586;13.442;2024-01-16T12:08:22;0.40;99.90
43627;DHT22;29217;52.586;13.442;2024-01-16T12:10:48;0.50;99.90
43627;DHT22;29217;52.586;13.442;2024-01-16T12:13:14;0.50;99.90
43627;DHT22;29217;52.586;13.442;2024-01-16T12:15:40;0.30;99.90
43627;DHT22;29217;52.586;13.442;2024-01-16T12:18:06;0.30;99.90
43627;DHT22;29217;52.586;13.442;2024-01-16T12:20:34;0.50;99.90
43627;DHT22;29217;52.586;13.442;2024-01-16T12:25:27;0.40;99.90
43627;DHT22;29217;52.586;13.442;2024-01-16T12:27:57;0.40;99.90
43627;DHT22;29217;52.586;13.442;2024-01-16T12:30:26;0.30;99.90
43627;DHT22;29217;52.586;13.442;2024-01-16T12:33:05;0.30;99.90
43627;DHT22;29217;52.586;13.442;2024-01-16T12:38:05;0.50;99.90
43627;DHT22;29217;52.586;13.442;2024-01-16T12:40:32;0.50;99.90
43627;DHT22;29217;52.586;13.442;2024-01-16T12:42:58;0.50;99.90
43627;DHT22;29217;52.586;13.442;2024-01-16T12:45:23;0.50;99.90
43627;DHT22;29217;52.586;13.442;2024-01-16T12:47:55;0.50;99.90
43627;DHT22;29217;52.586;13.442;2024-01-16T12:50:26;0.70;99.90
43627;DHT22;29217;52.586;13.442;2024-01-16T12:53:08;0.40;99.90
43627;DHT22;29217;52.586;13.442;2024-01-16T12:55:37;0.60;99.90
43627;DHT22;29217;52.586;13.442;2024-01-16T12:58:21;0.50;99.90
43627;DHT22;29217;52.586;13.442;2024-01-16T13:00:51;0.50;99.90
43627;DHT22;29217;52.586;13.442;2024-01-16T13:03:20;0.60;99.90
43627;DHT22;29217;52.586;13.442;2024-01-16T13:05:55;0.50;99.90
43627;DHT22;29217;52.586;13.442;2024-01-16T13:08:21;0.50;99.90
43627;DHT22;29217;52.586;13.442;2024-01-16T13:11:08;0.70;99.90
43627;DHT22;29217;52.586;13.442;2024-01-16T13:13:35;0.90;99.90
43627;DHT22;29217;52.586;13.442;2024-01-16T13:16:02;0.90;99.90
43627;DHT22;29217;52.586;13.442;2024-01-16T13:18:30;0.80;99.90
43627;DHT22;29217;52.586;13.442;2024-01-16T13:20:57;0.80;99.90
43627;DHT22;29217;52.586;13.442;2024-01-16T13:23:24;0.70;99.90
43627;DHT22;29217;52.586;13.442;2024-01-16T13:25:54;1.10;99.90
43627;DHT22;29217;52.586;13.442;2024-01-16T13:28:21;0.90;99.90
43627;DHT22;29217;52.586;13.442;2024-01-16T13:30:48;0.80;99.90
43627;DHT22;29217;52.586;13.442;2024-01-16T13:33:14;0.90;99.90
43627;DHT22;29217;52.586;13.442;2024-01-16T13:35:46;0.70;99.90
43627;DHT22;29217;52.586;13.442;2024-01-16T13:38:13;0.60;99.90
43627;DHT22;29217;52.586;13.442;2024-01-16T13:40:39;0.70;99.90
43627;DHT22;29217;52.586;13.442;2024-01-16T13:43:04;0.80;99.90
43627;DHT22;29217;52.586;13.442;2024-01-16T13:45:32;0.80;99.90
43627;DHT22;29217;52.586;13.442;2024-01-16T13:47:58;0.90;99.90
43627;DHT22;29217;52.586;13.442;2024-01-16T13:50:24;0.80;99.90
43627;DHT22;29217;52.586;13.442;2024-01-16T13:52:50;0.70;99.90
43627;DHT22;29217;52.586;13.442;2024-01-16T13:55:16;0.90;99.90
43627;DHT22;29217;52.586;13.442;2024-01-16T13:57:41;0.80;99.90
43627;DHT22;29217;52.586;13.442;2024-01-16T14:00:08;1.00;99.90
43627;DHT22;29217;52.586;13.442;2024-01-16T14:02:42;0.90;99.90
43627;DHT22;29217;52.586;13.442;2024-01-16T14:05:09;0.80;99.90
43627;DHT22;29217;52.586;13.442;2024-01-16T14:07:43;1.00;99.90
43627;DHT22;29217;52.586;13.442;2024-01-16T14:10:14;0.90;99.90
43627;DHT22;29217;52.586;13.442;2024-01-16T14:12:44;0.90;99.90
43627;DHT22;29217;52.586;13.442;2024-01-16T14:15:11;1.00;99.90
43627;DHT22;29217;52.586;13.442;2024-01-16T14:17:52;0.80;99.90
43627;DHT22;29217;52.586;13.442;2024-01-16T14:20:19;0.80;99.90
43627;DHT22;29217;52.586;13.442;2024-01-16T14:22:55;0.90;99.90
43627;DHT22;29217;52.586;13.442;2024-01-16T14:25:21;0.80;99.90
43627;DHT22;29217;52.586;13.442;2024-01-16T14:27:58;0.70;99.90
43627;DHT22;29217;52.586;13.442;2024-01-16T14:30:24;0.80;99.90
43627;DHT22;29217;52.586;13.442;2024-01-16T14:32:51;0.80;99.90
43627;DHT22;29217;52.586;13.442;2024-01-16T14:35:17;0.90;99.90
43627;DHT22;29217;52.586;13.442;2024-01-16T14:37:43;0.90;99.90
43627;DHT22;29217;52.586;13.442;2024-01-16T14:40:09;0.90;99.90
43627;DHT22;29217;52.586;13.442;2024-01-16T14:42:41;0.80;99.90
43627;DHT22;29217;52.586;13.442;2024-01-16T14:45:08;0.80;99.90
43627;DHT22;29217;52.586;13.442;2024-01-16T14:47:37;0.60;99.90
43627;DHT22;29217;52.586;13.442;2024-01-16T14:50:03;0.70;99.90
43627;DHT22;29217;52.586;13.442;2024-01-16T14:52:30;0.90;99.90
43627;DHT22;29217;52.586;13.442;2024-01-16T14:55:06;0.80;99.90
43627;DHT22;29217;52.586;13.442;2024-01-16T14:57:32;0.70;99.90
43627;DHT22;29217;52.586;13.442;2024-01-16T15:00:04;0.70;99.90
43627;DHT22;29217;52.586;13.442;2024-01-16T15:02:30;0.70;99.90
43627;DHT22;29217;52.586;13.442;2024-01-16T15:04:55;0.80;99.90
43627;DHT22;29217;52.586;13.442;2024-01-16T15:07:21;0.70;99.90
43627;DHT22;29217;52.586;13.442;2024-01-16T15:09:49;0.80;99.90
43627;DHT22;29217;52.586;13.442;2024-01-16T15:12:14;0.70;99.90
43627;DHT22;29217;52.586;13.442;2024-01-16T15:14:40;0.70;99.90
43627;DHT22;29217;52.586;13.442;2024-01-16T15:17:06;0.80;99.90
43627;DHT22;29217;52.586;13.442;2024-01-16T15:19:32;0.70;99.90
43627;DHT22;29217;52.586;13.442;2024-01-16T15:21:58;0.70;99.90
43627;DHT22;29217;52.586;13.442;2024-01-16T15:24:23;0.80;99.90
43627;DHT22;29217;52.586;13.442;2024-01-16T15:26:53;0.60;99.90
43627;DHT22;29217;52.586;13.442;2024-01-16T15:29:19;0.60;99.90
43627;DHT22;29217;52.586;13.442;2024-01-16T15:31:45;0.60;99.90
43627;DHT22;29217;52.586;13.442;2024-01-16T15:34:11;0.80;99.90
43627;DHT22;29217;52.586;13.442;2024-01-16T15:36:37;0.70;99.90
43627;DHT22;29217;52.586;13.442;2024-01-16T15:39:02;0.70;99.90
43627;DHT22;29217;52.586;13.442;2024-01-16T15:41:29;0.80;99.90
43627;DHT22;29217;52.586;13.442;2024-01-16T15:43:54;0.70;99.90
43627;DHT22;29217;52.586;13.442;2024-01-16T15:46:20;0.80;99.90
43627;DHT22;29217;52.586;13.442;2024-01-16T15:48:46;0.70;99.90
43627;DHT22;29217;52.586;13.442;2024-01-16T15:51:11;0.60;99.90
43627;DHT22;29217;52.586;13.442;2024-01-16T15:53:37;0.90;99.90
43627;DHT22;29217;52.586;13.442;2024-01-16T15:56:03;0.80;99.90
43627;DHT22;29217;52.586;13.442;2024-01-16T15:58:32;0.80;99.90